sensor_id;sensor_type;location;lat;lon;timestamp;pressure;altitude;pressure_sealevel;temperature;humidity
13934;BME280;7039;52.168;9.866;2023-06-22T00:00:59;100884.75;;;21.64;74.71
13934;BME280;7039;52.168;9.866;2023-06-22T00:03:26;100885.31;;;21.58;74.79
13934;BME280;7039;52.168;9.866;2023-06-22T00:05:52;100886.28;;;21.47;75.19
13934;BME280;7039;52.168;9.866;2023-06-22T00:08:19;100883.00;;;21.34;76.51
13934;BME280;7039;52.168;9.866;2023-06-22T00:10:46;100889.72;;;21.38;75.86
13934;BME280;7039;52.168;9.866;2023-06-22T00:13:14;100889.66;;;21.09;76.71
13934;BME280;7039;52.168;9.866;2023-06-22T00:15:41;100891.81;;;20.94;77.58
13934;BME280;7039;52.168;9.866;2023-06-22T00:18:09;100893.38;;;20.65;78.37
13934;BME280;7039;52.168;9.866;2023-06-22T00:20:36;100904.69;;;20.68;78.08
13934;BME280;7039;52.168;9.866;2023-06-22T00:23:04;100913.09;;;20.73;77.89
13934;BME280;7039;52.168;9.866;2023-06-22T00:25:33;100912.78;;;20.66;78.36
13934;BME280;7039;52.168;9.866;2023-06-22T00:27:59;100905.75;;;20.86;77.13
13934;BME280;7039;52.168;9.866;2023-06-22T00:30:27;100906.50;;;20.98;76.51
13934;BME280;7039;52.168;9.866;2023-06-22T00:32:54;100903.03;;;21.07;76.08
13934;BME280;7039;52.168;9.866;2023-06-22T00:35:20;100912.31;;;21.22;75.38
13934;BME280;7039;52.168;9.866;2023-06-22T00:37:47;100910.25;;;21.26;75.30
13934;BME280;7039;52.168;9.866;2023-06-22T00:40:13;100895.28;;;21.25;75.03
13934;BME280;7039;52.168;9.866;2023-06-22T00:42:40;100892.50;;;21.36;74.59
13934;BME280;7039;52.168;9.866;2023-06-22T00:45:08;100880.22;;;21.35;74.34
13934;BME280;7039;52.168;9.866;2023-06-22T00:47:36;100883.84;;;21.34;74.78
13934;BME280;7039;52.168;9.866;2023-06-22T00:50:06;100871.84;;;21.40;74.38
13934;BME280;7039;52.168;9.866;2023-06-22T00:52:33;100868.50;;;21.38;73.98
13934;BME280;7039;52.168;9.866;2023-06-22T00:55:01;100871.06;;;21.49;73.66
13934;BME280;7039;52.168;9.866;2023-06-22T00:57:28;100856.66;;;21.42;73.87
13934;BME280;7039;52.168;9.866;2023-06-22T00:59:55;100864.75;;;21.40;73.80
13934;BME280;7039;52.168;9.866;2023-06-22T01:02:21;100861.91;;;21.32;73.91
13934;BME280;7039;52.168;9.866;2023-06-22T01:04:49;100863.03;;;21.30;74.28
13934;BME280;7039;52.168;9.866;2023-06-22T01:07:21;100864.03;;;21.28;73.97
13934;BME280;7039;52.168;9.866;2023-06-22T01:09:57;100862.28;;;20.98;75.30
13934;BME280;7039;52.168;9.866;2023-06-22T01:12:24;100854.59;;;21.05;75.19
13934;BME280;7039;52.168;9.866;2023-06-22T01:14:55;100849.97;;;20.97;75.07
13934;BME280;7039;52.168;9.866;2023-06-22T01:17:24;100848.31;;;20.96;74.82
13934;BME280;7039;52.168;9.866;2023-06-22T01:19:55;100844.78;;;20.55;77.11
13934;BME280;7039;52.168;9.866;2023-06-22T01:22:24;100849.03;;;20.68;76.66
13934;BME280;7039;52.168;9.866;2023-06-22T01:24:59;100850.91;;;20.86;75.98
13934;BME280;7039;52.168;9.866;2023-06-22T01:27:36;100849.53;;;20.82;76.21
13934;BME280;7039;52.168;9.866;2023-06-22T01:30:09;100851.28;;;20.72;76.17
13934;BME280;7039;52.168;9.866;2023-06-22T01:32:37;100846.25;;;20.48;77.01
13934;BME280;7039;52.168;9.866;2023-06-22T01:35:06;100860.13;;;20.31;77.24
13934;BME280;7039;52.168;9.866;2023-06-22T01:37:34;100861.34;;;20.27;77.46
13934;BME280;7039;52.168;9.866;2023-06-22T01:40:01;100861.81;;;20.41;77.11
13934;BME280;7039;52.168;9.866;2023-06-22T01:42:30;100865.84;;;20.57;76.85
13934;BME280;7039;52.168;9.866;2023-06-22T01:44:57;100864.25;;;20.75;76.22
13934;BME280;7039;52.168;9.866;2023-06-22T01:47:26;100853.56;;;20.56;77.26
13934;BME280;7039;52.168;9.866;2023-06-22T01:49:53;100852.66;;;20.45;77.93
13934;BME280;7039;52.168;9.866;2023-06-22T01:52:20;100857.25;;;20.43;77.46
13934;BME280;7039;52.168;9.866;2023-06-22T01:54:47;100858.16;;;20.54;77.54
13934;BME280;7039;52.168;9.866;2023-06-22T01:57:14;100852.25;;;20.50;78.10
13934;BME280;7039;52.168;9.866;2023-06-22T01:59:46;100851.25;;;20.20;79.58
13934;BME280;7039;52.168;9.866;2023-06-22T02:02:16;100850.25;;;19.79;81.61
13934;BME280;7039;52.168;9.866;2023-06-22T02:04:51;100848.50;;;19.69;81.35
13934;BME280;7039;52.168;9.866;2023-06-22T02:07:20;100858.88;;;19.93;80.53
13934;BME280;7039;52.168;9.866;2023-06-22T02:09:51;100858.31;;;20.10;79.42
13934;BME280;7039;52.168;9.866;2023-06-22T02:12:22;100864.69;;;20.29;78.74
13934;BME280;7039;52.168;9.866;2023-06-22T02:14:51;100868.44;;;20.26;78.64
13934;BME280;7039;52.168;9.866;2023-06-22T02:17:18;100862.50;;;19.92;80.19
13934;BME280;7039;52.168;9.866;2023-06-22T02:19:46;100863.72;;;19.88;80.60
13934;BME280;7039;52.168;9.866;2023-06-22T02:22:13;100855.28;;;20.15;79.13
13934;BME280;7039;52.168;9.866;2023-06-22T02:24:39;100867.34;;;20.29;78.03
13934;BME280;7039;52.168;9.866;2023-06-22T02:27:06;100871.28;;;20.34;77.54
13934;BME280;7039;52.168;9.866;2023-06-22T02:29:33;100858.56;;;20.28;78.02
13934;BME280;7039;52.168;9.866;2023-06-22T02:31:59;100861.22;;;20.28;78.29
13934;BME280;7039;52.168;9.866;2023-06-22T02:34:26;100863.66;;;20.41;77.44
13934;BME280;7039;52.168;9.866;2023-06-22T02:36:53;100880.25;;;20.43;77.25
13934;BME280;7039;52.168;9.866;2023-06-22T02:39:21;100869.75;;;20.11;78.91
13934;BME280;7039;52.168;9.866;2023-06-22T02:41:48;100865.47;;;19.98;79.55
13934;BME280;7039;52.168;9.866;2023-06-22T02:44:16;100880.38;;;20.20;78.80
13934;BME280;7039;52.168;9.866;2023-06-22T02:46:43;100886.13;;;20.26;78.39
13934;BME280;7039;52.168;9.866;2023-06-22T02:49:10;100894.41;;;20.32;78.35
13934;BME280;7039;52.168;9.866;2023-06-22T02:51:38;100903.25;;;20.42;77.76
13934;BME280;7039;52.168;9.866;2023-06-22T02:54:06;100902.94;;;20.36;78.24
13934;BME280;7039;52.168;9.866;2023-06-22T02:56:33;100898.03;;;20.31;78.20
13934;BME280;7039;52.168;9.866;2023-06-22T02:59:01;100906.88;;;20.41;78.15
13934;BME280;7039;52.168;9.866;2023-06-22T03:01:28;100906.34;;;20.48;77.57
13934;BME280;7039;52.168;9.866;2023-06-22T03:03:55;100912.72;;;20.56;77.23
13934;BME280;7039;52.168;9.866;2023-06-22T03:06:22;100912.91;;;20.64;76.82
13934;BME280;7039;52.168;9.866;2023-06-22T03:08:56;100898.81;;;20.64;77.07
13934;BME280;7039;52.168;9.866;2023-06-22T03:11:24;100906.94;;;20.72;76.56
13934;BME280;7039;52.168;9.866;2023-06-22T03:13:50;100900.50;;;20.65;77.66
13934;BME280;7039;52.168;9.866;2023-06-22T03:16:17;100894.00;;;20.37;78.36
13934;BME280;7039;52.168;9.866;2023-06-22T03:18:44;100906.31;;;20.38;78.22
13934;BME280;7039;52.168;9.866;2023-06-22T03:21:10;100899.81;;;20.10;79.68
13934;BME280;7039;52.168;9.866;2023-06-22T03:23:37;100906.31;;;20.17;79.59
13934;BME280;7039;52.168;9.866;2023-06-22T03:26:03;100907.75;;;19.89;80.42
13934;BME280;7039;52.168;9.866;2023-06-22T03:28:31;100908.03;;;20.07;80.14
13934;BME280;7039;52.168;9.866;2023-06-22T03:30:58;100904.75;;;20.14;79.67
13934;BME280;7039;52.168;9.866;2023-06-22T03:33:24;100906.75;;;20.01;80.66
13934;BME280;7039;52.168;9.866;2023-06-22T03:35:51;100912.81;;;20.34;79.51
13934;BME280;7039;52.168;9.866;2023-06-22T03:38:18;100922.34;;;20.57;78.89
13934;BME280;7039;52.168;9.866;2023-06-22T03:40:45;100911.47;;;20.81;77.67
13934;BME280;7039;52.168;9.866;2023-06-22T03:43:11;100906.47;;;20.88;76.71
13934;BME280;7039;52.168;9.866;2023-06-22T03:45:39;100908.22;;;21.09;75.75
13934;BME280;7039;52.168;9.866;2023-06-22T03:48:06;100902.81;;;21.20;75.29
13934;BME280;7039;52.168;9.866;2023-06-22T03:50:32;100896.81;;;21.27;75.02
13934;BME280;7039;52.168;9.866;2023-06-22T03:52:59;100896.19;;;21.45;74.99
13934;BME280;7039;52.168;9.866;2023-06-22T03:55:25;100894.00;;;21.60;74.81
13934;BME280;7039;52.168;9.866;2023-06-22T03:57:52;100896.94;;;21.66;73.90
13934;BME280;7039;52.168;9.866;2023-06-22T04:00:19;100890.47;;;21.50;75.46
13934;BME280;7039;52.168;9.866;2023-06-22T04:02:47;100884.22;;;21.70;74.45
13934;BME280;7039;52.168;9.866;2023-06-22T04:05:13;100878.47;;;21.75;74.92
13934;BME280;7039;52.168;9.866;2023-06-22T04:07:40;100884.38;;;21.78;74.98
13934;BME280;7039;52.168;9.866;2023-06-22T04:10:07;100894.16;;;21.87;74.05
13934;BME280;7039;52.168;9.866;2023-06-22T04:12:34;100896.66;;;21.99;73.63
13934;BME280;7039;52.168;9.866;2023-06-22T04:15:00;100886.16;;;21.97;74.76
13934;BME280;7039;52.168;9.866;2023-06-22T04:17:27;100893.16;;;21.88;75.08
13934;BME280;7039;52.168;9.866;2023-06-22T04:19:54;100894.00;;;21.99;74.86
13934;BME280;7039;52.168;9.866;2023-06-22T04:22:21;100895.97;;;21.87;75.74
13934;BME280;7039;52.168;9.866;2023-06-22T04:24:47;100901.28;;;21.87;75.44
13934;BME280;7039;52.168;9.866;2023-06-22T04:27:17;100907.72;;;21.94;74.67
13934;BME280;7039;52.168;9.866;2023-06-22T04:29:44;100898.34;;;21.80;76.15
13934;BME280;7039;52.168;9.866;2023-06-22T04:32:14;100908.53;;;21.95;76.28
13934;BME280;7039;52.168;9.866;2023-06-22T04:34:40;100906.03;;;21.83;77.01
13934;BME280;7039;52.168;9.866;2023-06-22T04:37:08;100908.53;;;21.85;76.98
13934;BME280;7039;52.168;9.866;2023-06-22T04:39:38;100905.03;;;21.84;76.60
13934;BME280;7039;52.168;9.866;2023-06-22T04:42:05;100901.41;;;21.95;75.85
13934;BME280;7039;52.168;9.866;2023-06-22T04:44:31;100906.69;;;22.05;75.61
13934;BME280;7039;52.168;9.866;2023-06-22T04:46:59;100901.09;;;22.18;75.82
13934;BME280;7039;52.168;9.866;2023-06-22T04:49:27;100899.72;;;22.33;74.50
13934;BME280;7039;52.168;9.866;2023-06-22T04:51:58;100895.22;;;22.43;74.63
13934;BME280;7039;52.168;9.866;2023-06-22T04:54:26;100894.47;;;22.61;74.34
13934;BME280;7039;52.168;9.866;2023-06-22T04:56:52;100888.16;;;22.71;74.45
13934;BME280;7039;52.168;9.866;2023-06-22T04:59:21;100883.22;;;22.77;72.80
13934;BME280;7039;52.168;9.866;2023-06-22T05:01:48;100884.69;;;22.89;73.07
13934;BME280;7039;52.168;9.866;2023-06-22T05:04:16;100886.63;;;23.06;73.11
13934;BME280;7039;52.168;9.866;2023-06-22T05:06:43;100886.75;;;23.05;73.26
13934;BME280;7039;52.168;9.866;2023-06-22T05:09:10;100893.19;;;23.30;71.98
13934;BME280;7039;52.168;9.866;2023-06-22T05:11:38;100884.19;;;23.41;72.18
13934;BME280;7039;52.168;9.866;2023-06-22T05:14:05;100883.81;;;23.53;70.83
13934;BME280;7039;52.168;9.866;2023-06-22T05:16:32;100881.22;;;23.62;70.91
13934;BME280;7039;52.168;9.866;2023-06-22T05:18:59;100879.41;;;23.62;71.06
13934;BME280;7039;52.168;9.866;2023-06-22T05:21:29;100871.75;;;23.77;70.87
13934;BME280;7039;52.168;9.866;2023-06-22T05:23:57;100874.41;;;23.95;70.60
13934;BME280;7039;52.168;9.866;2023-06-22T05:26:26;100865.47;;;24.04;68.88
13934;BME280;7039;52.168;9.866;2023-06-22T05:28:56;100867.38;;;24.12;69.02
13934;BME280;7039;52.168;9.866;2023-06-22T05:31:23;100865.19;;;24.07;69.68
13934;BME280;7039;52.168;9.866;2023-06-22T05:33:52;100866.63;;;24.02;69.16
13934;BME280;7039;52.168;9.866;2023-06-22T05:36:19;100860.38;;;24.11;69.17
13934;BME280;7039;52.168;9.866;2023-06-22T05:38:47;100866.25;;;23.96;69.38
13934;BME280;7039;52.168;9.866;2023-06-22T05:41:13;100867.06;;;24.15;69.19
13934;BME280;7039;52.168;9.866;2023-06-22T05:43:40;100870.63;;;24.24;69.09
13934;BME280;7039;52.168;9.866;2023-06-22T05:46:08;100876.84;;;24.32;69.03
13934;BME280;7039;52.168;9.866;2023-06-22T05:48:34;100874.53;;;24.37;68.19
13934;BME280;7039;52.168;9.866;2023-06-22T05:51:01;100883.44;;;24.46;68.06
13934;BME280;7039;52.168;9.866;2023-06-22T05:53:27;100882.31;;;24.49;67.92
13934;BME280;7039;52.168;9.866;2023-06-22T05:55:54;100884.25;;;24.65;67.93
13934;BME280;7039;52.168;9.866;2023-06-22T05:58:20;100881.91;;;24.70;68.62
13934;BME280;7039;52.168;9.866;2023-06-22T06:00:47;100884.38;;;24.63;69.24
13934;BME280;7039;52.168;9.866;2023-06-22T06:03:15;100877.66;;;24.51;68.68
13934;BME280;7039;52.168;9.866;2023-06-22T06:05:42;100880.75;;;24.20;70.96
13934;BME280;7039;52.168;9.866;2023-06-22T06:08:09;100867.66;;;24.09;71.36
13934;BME280;7039;52.168;9.866;2023-06-22T06:10:36;100870.56;;;24.42;70.04
13934;BME280;7039;52.168;9.866;2023-06-22T06:13:03;100874.31;;;24.49;69.97
13934;BME280;7039;52.168;9.866;2023-06-22T06:15:30;100870.03;;;24.56;70.60
13934;BME280;7039;52.168;9.866;2023-06-22T06:17:56;100871.13;;;24.27;71.15
13934;BME280;7039;52.168;9.866;2023-06-22T06:20:25;100872.06;;;24.62;71.69
13934;BME280;7039;52.168;9.866;2023-06-22T06:22:53;100863.03;;;24.63;69.48
13934;BME280;7039;52.168;9.866;2023-06-22T06:25:19;100865.50;;;24.91;69.04
13934;BME280;7039;52.168;9.866;2023-06-22T06:27:48;100857.19;;;24.94;69.36
13934;BME280;7039;52.168;9.866;2023-06-22T06:30:16;100858.50;;;24.90;69.72
13934;BME280;7039;52.168;9.866;2023-06-22T06:32:43;100861.25;;;25.14;68.56
13934;BME280;7039;52.168;9.866;2023-06-22T06:35:11;100860.16;;;25.33;68.41
13934;BME280;7039;52.168;9.866;2023-06-22T06:37:40;100865.38;;;25.51;67.79
13934;BME280;7039;52.168;9.866;2023-06-22T06:40:09;100861.50;;;25.29;68.61
13934;BME280;7039;52.168;9.866;2023-06-22T06:42:36;100858.69;;;25.39;69.45
13934;BME280;7039;52.168;9.866;2023-06-22T06:45:06;100858.72;;;25.72;67.47
13934;BME280;7039;52.168;9.866;2023-06-22T06:47:32;100860.72;;;25.86;67.01
13934;BME280;7039;52.168;9.866;2023-06-22T06:49:59;100863.41;;;26.19;65.85
13934;BME280;7039;52.168;9.866;2023-06-22T06:52:26;100867.59;;;26.21;64.67
13934;BME280;7039;52.168;9.866;2023-06-22T06:54:53;100866.88;;;26.44;64.55
13934;BME280;7039;52.168;9.866;2023-06-22T06:57:20;100865.19;;;26.59;63.92
13934;BME280;7039;52.168;9.866;2023-06-22T06:59:47;100863.81;;;26.72;63.13
13934;BME280;7039;52.168;9.866;2023-06-22T07:02:14;100853.13;;;26.63;63.59
13934;BME280;7039;52.168;9.866;2023-06-22T07:04:40;100856.13;;;26.69;63.10
13934;BME280;7039;52.168;9.866;2023-06-22T07:07:07;100852.78;;;26.66;63.59
13934;BME280;7039;52.168;9.866;2023-06-22T07:09:33;100858.81;;;27.00;62.31
13934;BME280;7039;52.168;9.866;2023-06-22T07:12:01;100862.00;;;27.03;61.78
13934;BME280;7039;52.168;9.866;2023-06-22T07:14:28;100861.22;;;26.86;61.96
13934;BME280;7039;52.168;9.866;2023-06-22T07:16:54;100858.81;;;27.00;62.18
13934;BME280;7039;52.168;9.866;2023-06-22T07:19:24;100855.31;;;26.99;62.03
13934;BME280;7039;52.168;9.866;2023-06-22T07:21:51;100856.53;;;27.20;61.06
13934;BME280;7039;52.168;9.866;2023-06-22T07:24:19;100857.38;;;27.52;60.32
13934;BME280;7039;52.168;9.866;2023-06-22T07:26:45;100850.94;;;27.38;60.43
13934;BME280;7039;52.168;9.866;2023-06-22T07:29:14;100856.38;;;27.53;60.80
13934;BME280;7039;52.168;9.866;2023-06-22T07:31:41;100847.44;;;27.37;60.34
13934;BME280;7039;52.168;9.866;2023-06-22T07:34:07;100849.47;;;27.35;60.27
13934;BME280;7039;52.168;9.866;2023-06-22T07:36:34;100846.16;;;26.94;60.76
13934;BME280;7039;52.168;9.866;2023-06-22T07:39:01;100846.22;;;26.77;61.84
13934;BME280;7039;52.168;9.866;2023-06-22T07:41:28;100853.81;;;26.97;61.45
13934;BME280;7039;52.168;9.866;2023-06-22T07:43:54;100850.22;;;26.81;61.59
13934;BME280;7039;52.168;9.866;2023-06-22T07:46:22;100848.34;;;26.90;61.94
13934;BME280;7039;52.168;9.866;2023-06-22T07:48:48;100857.16;;;26.99;61.44
13934;BME280;7039;52.168;9.866;2023-06-22T07:51:15;100852.34;;;26.94;61.72
13934;BME280;7039;52.168;9.866;2023-06-22T07:53:42;100853.56;;;27.15;61.60
13934;BME280;7039;52.168;9.866;2023-06-22T07:56:10;100842.94;;;26.98;61.96
13934;BME280;7039;52.168;9.866;2023-06-22T07:58:36;100847.94;;;27.01;61.74
13934;BME280;7039;52.168;9.866;2023-06-22T08:01:03;100845.06;;;26.72;61.80
13934;BME280;7039;52.168;9.866;2023-06-22T08:03:31;100846.19;;;26.85;62.65
13934;BME280;7039;52.168;9.866;2023-06-22T08:05:57;100841.25;;;27.05;61.66
13934;BME280;7039;52.168;9.866;2023-06-22T08:08:24;100844.75;;;27.06;60.22
13934;BME280;7039;52.168;9.866;2023-06-22T08:10:50;100842.38;;;27.11;61.04
13934;BME280;7039;52.168;9.866;2023-06-22T08:13:17;100842.91;;;27.06;60.96
13934;BME280;7039;52.168;9.866;2023-06-22T08:15:44;100850.88;;;26.83;60.76
13934;BME280;7039;52.168;9.866;2023-06-22T08:18:11;100848.06;;;26.77;61.36
13934;BME280;7039;52.168;9.866;2023-06-22T08:20:39;100862.28;;;27.08;61.07
13934;BME280;7039;52.168;9.866;2023-06-22T08:23:05;100847.31;;;27.31;60.25
13934;BME280;7039;52.168;9.866;2023-06-22T08:25:32;100850.69;;;27.47;59.43
13934;BME280;7039;52.168;9.866;2023-06-22T08:27:59;100857.91;;;27.47;58.71
13934;BME280;7039;52.168;9.866;2023-06-22T08:30:25;100847.72;;;27.42;59.82
13934;BME280;7039;52.168;9.866;2023-06-22T08:32:52;100838.22;;;26.69;60.23
13934;BME280;7039;52.168;9.866;2023-06-22T08:35:19;100849.22;;;26.82;61.72
13934;BME280;7039;52.168;9.866;2023-06-22T08:37:47;100849.81;;;27.01;61.05
13934;BME280;7039;52.168;9.866;2023-06-22T08:40:17;100848.38;;;27.21;61.24
13934;BME280;7039;52.168;9.866;2023-06-22T08:42:45;100846.16;;;26.94;60.56
13934;BME280;7039;52.168;9.866;2023-06-22T08:45:12;100850.53;;;27.26;61.44
13934;BME280;7039;52.168;9.866;2023-06-22T08:47:39;100854.03;;;27.26;61.28
13934;BME280;7039;52.168;9.866;2023-06-22T08:50:07;100852.53;;;27.24;60.92
13934;BME280;7039;52.168;9.866;2023-06-22T08:52:34;100843.63;;;27.00;61.72
13934;BME280;7039;52.168;9.866;2023-06-22T08:55:02;100840.47;;;27.28;61.50
13934;BME280;7039;52.168;9.866;2023-06-22T08:57:28;100841.59;;;27.34;61.66
13934;BME280;7039;52.168;9.866;2023-06-22T08:59:55;100838.78;;;27.27;60.81
13934;BME280;7039;52.168;9.866;2023-06-22T09:02:23;100832.47;;;27.43;60.71
13934;BME280;7039;52.168;9.866;2023-06-22T09:04:50;100841.47;;;27.50;60.68
13934;BME280;7039;52.168;9.866;2023-06-22T09:07:20;100831.66;;;27.65;59.88
13934;BME280;7039;52.168;9.866;2023-06-22T09:09:49;100819.66;;;27.84;58.26
13934;BME280;7039;52.168;9.866;2023-06-22T09:12:17;100814.50;;;28.42;57.68
13934;BME280;7039;52.168;9.866;2023-06-22T09:14:45;100799.59;;;28.84;56.81
13934;BME280;7039;52.168;9.866;2023-06-22T09:17:12;100790.50;;;29.22;55.98
13934;BME280;7039;52.168;9.866;2023-06-22T09:19:39;100795.22;;;29.63;54.90
13934;BME280;7039;52.168;9.866;2023-06-22T09:22:05;100794.97;;;29.79;55.53
13934;BME280;7039;52.168;9.866;2023-06-22T09:24:32;100790.13;;;29.68;55.67
13934;BME280;7039;52.168;9.866;2023-06-22T09:26:59;100808.69;;;29.84;54.97
13934;BME280;7039;52.168;9.866;2023-06-22T09:29:27;100808.81;;;29.33;55.46
13934;BME280;7039;52.168;9.866;2023-06-22T09:31:53;100804.78;;;29.44;54.54
13934;BME280;7039;52.168;9.866;2023-06-22T09:34:21;100797.53;;;29.23;56.24
13934;BME280;7039;52.168;9.866;2023-06-22T09:36:47;100791.22;;;29.30;56.21
13934;BME280;7039;52.168;9.866;2023-06-22T09:39:14;100794.47;;;29.26;55.77
13934;BME280;7039;52.168;9.866;2023-06-22T09:41:40;100787.50;;;28.95;57.09
13934;BME280;7039;52.168;9.866;2023-06-22T09:44:07;100791.59;;;28.91;56.56
13934;BME280;7039;52.168;9.866;2023-06-22T09:46:35;100793.59;;;29.19;57.09
13934;BME280;7039;52.168;9.866;2023-06-22T09:49:01;100775.28;;;28.92;57.15
13934;BME280;7039;52.168;9.866;2023-06-22T09:51:28;100775.72;;;29.11;56.86
13934;BME280;7039;52.168;9.866;2023-06-22T09:53:54;100770.84;;;29.43;57.14
13934;BME280;7039;52.168;9.866;2023-06-22T09:56:21;100773.44;;;29.79;55.30
13934;BME280;7039;52.168;9.866;2023-06-22T09:58:48;100775.53;;;29.55;55.92
13934;BME280;7039;52.168;9.866;2023-06-22T10:01:18;100777.78;;;29.30;56.19
13934;BME280;7039;52.168;9.866;2023-06-22T10:03:47;100783.72;;;29.97;56.37
13934;BME280;7039;52.168;9.866;2023-06-22T10:06:13;100774.00;;;29.25;56.42
13934;BME280;7039;52.168;9.866;2023-06-22T10:08:40;100786.81;;;29.44;56.72
13934;BME280;7039;52.168;9.866;2023-06-22T10:11:07;100785.72;;;29.88;56.22
13934;BME280;7039;52.168;9.866;2023-06-22T10:13:33;100786.06;;;30.35;55.29
13934;BME280;7039;52.168;9.866;2023-06-22T10:16:00;100785.91;;;30.15;55.23
13934;BME280;7039;52.168;9.866;2023-06-22T10:18:26;100783.78;;;30.38;54.96
13934;BME280;7039;52.168;9.866;2023-06-22T10:20:54;100787.50;;;30.37;54.71
13934;BME280;7039;52.168;9.866;2023-06-22T10:23:20;100780.09;;;30.46;54.07
13934;BME280;7039;52.168;9.866;2023-06-22T10:25:47;100786.13;;;30.48;54.71
13934;BME280;7039;52.168;9.866;2023-06-22T10:28:14;100775.94;;;30.44;55.85
13934;BME280;7039;52.168;9.866;2023-06-22T10:30:41;100774.25;;;30.36;55.75
13934;BME280;7039;52.168;9.866;2023-06-22T10:33:07;100766.34;;;30.00;55.53
13934;BME280;7039;52.168;9.866;2023-06-22T10:35:34;100770.34;;;29.75;57.35
13934;BME280;7039;52.168;9.866;2023-06-22T10:38:01;100762.56;;;29.87;56.64
13934;BME280;7039;52.168;9.866;2023-06-22T10:40:28;100749.97;;;29.66;56.26
13934;BME280;7039;52.168;9.866;2023-06-22T10:42:54;100754.03;;;29.55;56.91
13934;BME280;7039;52.168;9.866;2023-06-22T10:45:21;100753.72;;;29.93;55.87
13934;BME280;7039;52.168;9.866;2023-06-22T10:47:47;100753.66;;;30.22;55.51
13934;BME280;7039;52.168;9.866;2023-06-22T10:50:14;100749.03;;;30.44;55.69
13934;BME280;7039;52.168;9.866;2023-06-22T10:52:40;100725.69;;;30.23;56.18
13934;BME280;7039;52.168;9.866;2023-06-22T10:55:09;100741.19;;;30.49;55.88
13934;BME280;7039;52.168;9.866;2023-06-22T10:57:36;100732.03;;;30.36;56.37
13934;BME280;7039;52.168;9.866;2023-06-22T11:00:05;100739.56;;;30.61;56.38
13934;BME280;7039;52.168;9.866;2023-06-22T11:02:33;100742.00;;;30.49;55.99
13934;BME280;7039;52.168;9.866;2023-06-22T11:05:00;100746.75;;;31.22;55.72
13934;BME280;7039;52.168;9.866;2023-06-22T11:07:26;100737.84;;;31.81;55.22
13934;BME280;7039;52.168;9.866;2023-06-22T11:09:54;100733.94;;;32.42;51.64
13934;BME280;7039;52.168;9.866;2023-06-22T11:12:21;100731.19;;;32.62;53.59
13934;BME280;7039;52.168;9.866;2023-06-22T11:14:48;100729.97;;;32.45;51.62
13934;BME280;7039;52.168;9.866;2023-06-22T11:17:16;100715.59;;;32.06;52.05
13934;BME280;7039;52.168;9.866;2023-06-22T11:19:43;100711.22;;;32.12;54.54
13934;BME280;7039;52.168;9.866;2023-06-22T11:22:10;100704.00;;;31.99;52.48
13934;BME280;7039;52.168;9.866;2023-06-22T11:24:36;100704.81;;;31.93;52.67
13934;BME280;7039;52.168;9.866;2023-06-22T11:27:03;100692.38;;;31.98;53.86
13934;BME280;7039;52.168;9.866;2023-06-22T11:29:31;100695.94;;;32.44;52.95
13934;BME280;7039;52.168;9.866;2023-06-22T11:31:57;100686.16;;;32.43;53.98
13934;BME280;7039;52.168;9.866;2023-06-22T11:34:24;100669.00;;;33.01;51.11
13934;BME280;7039;52.168;9.866;2023-06-22T11:36:51;100670.50;;;33.22;50.94
13934;BME280;7039;52.168;9.866;2023-06-22T11:39:17;100666.22;;;32.82;51.39
13934;BME280;7039;52.168;9.866;2023-06-22T11:41:44;100664.41;;;32.31;52.58
13934;BME280;7039;52.168;9.866;2023-06-22T11:44:10;100659.13;;;32.50;52.09
13934;BME280;7039;52.168;9.866;2023-06-22T11:46:38;100663.94;;;33.11;52.78
13934;BME280;7039;52.168;9.866;2023-06-22T11:49:04;100652.63;;;32.96;52.05
13934;BME280;7039;52.168;9.866;2023-06-22T11:51:31;100639.81;;;32.84;51.56
13934;BME280;7039;52.168;9.866;2023-06-22T11:53:57;100634.00;;;33.13;51.50
13934;BME280;7039;52.168;9.866;2023-06-22T11:56:24;100632.75;;;33.34;52.60
13934;BME280;7039;52.168;9.866;2023-06-22T11:58:50;100637.53;;;33.57;51.74
13934;BME280;7039;52.168;9.866;2023-06-22T12:01:17;100635.09;;;34.04;49.81
13934;BME280;7039;52.168;9.866;2023-06-22T12:03:45;100634.22;;;34.10;48.64
13934;BME280;7039;52.168;9.866;2023-06-22T12:06:11;100625.28;;;34.40;49.84
13934;BME280;7039;52.168;9.866;2023-06-22T12:08:37;100628.63;;;34.23;50.27
13934;BME280;7039;52.168;9.866;2023-06-22T12:11:04;100616.84;;;34.60;49.12
13934;BME280;7039;52.168;9.866;2023-06-22T12:13:30;100612.13;;;35.21;48.93
13934;BME280;7039;52.168;9.866;2023-06-22T12:15:57;100615.38;;;35.58;46.22
13934;BME280;7039;52.168;9.866;2023-06-22T12:18:23;100606.63;;;35.68;46.49
13934;BME280;7039;52.168;9.866;2023-06-22T12:20:51;100593.47;;;34.89;46.68
13934;BME280;7039;52.168;9.866;2023-06-22T12:23:18;100598.19;;;34.82;47.55
13934;BME280;7039;52.168;9.866;2023-06-22T12:25:45;100588.66;;;34.37;47.47
13934;BME280;7039;52.168;9.866;2023-06-22T12:28:12;100589.41;;;34.14;48.87
13934;BME280;7039;52.168;9.866;2023-06-22T12:30:38;100582.19;;;33.89;48.67
13934;BME280;7039;52.168;9.866;2023-06-22T12:33:05;100584.19;;;33.64;49.16
13934;BME280;7039;52.168;9.866;2023-06-22T12:35:31;100575.94;;;33.15;48.41
13934;BME280;7039;52.168;9.866;2023-06-22T12:37:59;100569.88;;;33.20;50.25
13934;BME280;7039;52.168;9.866;2023-06-22T12:40:25;100567.09;;;33.26;49.59
13934;BME280;7039;52.168;9.866;2023-06-22T12:42:52;100568.16;;;33.25;49.59
13934;BME280;7039;52.168;9.866;2023-06-22T12:45:18;100566.53;;;33.61;50.13
13934;BME280;7039;52.168;9.866;2023-06-22T12:47:46;100564.34;;;33.70;48.31
13934;BME280;7039;52.168;9.866;2023-06-22T12:50:15;100565.97;;;34.20;48.15
13934;BME280;7039;52.168;9.866;2023-06-22T12:52:41;100569.81;;;34.42;48.58
13934;BME280;7039;52.168;9.866;2023-06-22T12:55:09;100566.34;;;34.23;48.91
13934;BME280;7039;52.168;9.866;2023-06-22T12:57:36;100556.84;;;34.02;48.43
13934;BME280;7039;52.168;9.866;2023-06-22T13:00:03;100560.72;;;34.06;49.38